Time;durP1;ratioP1;P1;durP2;ratioP2;P2;SDS_P1;SDS_P2;PMS_P1;PMS_P2;Temp;Humidity;BMP_temperature;BMP_pressure;BME280_temperature;BME280_humidity;BME280_pressure;Samples;Min_cycle;Max_cycle;Signal;HPM_P1;HPM_P2
2023/04/08 00:01:08;;;;;;;;;;;;;;;7.29;100.00;96683.78;5034925;28;20388;-71
2023/04/08 00:03:34;;;;;;;;;;;;;;;7.28;100.00;96684.78;5034790;28;19944;-70
2023/04/08 00:06:02;;;;;;;;;;;;;;;7.26;100.00;96677.13;5034169;28;19946;-73
2023/04/08 00:08:27;;;;;;;;;;;;;;;7.23;100.00;96682.75;5034663;28;20277;-68
2023/04/08 00:10:54;;;;;;;;;;;;;;;7.22;100.00;96685.53;5017029;28;19950;-69
2023/04/08 00:13:20;;;;;;;;;;;;;;;7.19;100.00;96681.50;5034455;28;20422;-70
2023/04/08 00:15:45;;;;;;;;;;;;;;;7.18;100.00;96686.91;5034575;28;20426;-69
2023/04/08 00:18:13;;;;;;;;;;;;;;;7.19;100.00;96688.53;5035618;28;19946;-70
2023/04/08 00:20:39;;;;;;;;;;;;;;;7.20;100.00;96690.13;5034601;28;19941;-69
2023/04/08 00:23:05;;;;;;;;;;;;;;;7.18;100.00;96692.94;5034706;28;19948;-69
2023/04/08 00:25:31;;;;;;;;;;;;;;;7.19;100.00;96693.75;5034416;28;20452;-77
2023/04/08 00:27:56;;;;;;;;;;;;;;;7.17;100.00;96696.53;5034949;28;20001;-82
2023/04/08 00:30:22;;;;;;;;;;;;;;;7.13;100.00;96690.09;5034652;28;19980;-81
2023/04/08 00:32:48;;;;;;;;;;;;;;;7.11;100.00;96695.50;5016752;28;19953;-82
2023/04/08 00:35:14;;;;;;;;;;;;;;;7.08;100.00;96695.88;5035025;28;19970;-83
2023/04/08 00:37:40;;;;;;;;;;;;;;;7.04;100.00;96699.88;5034176;28;19963;-82
2023/04/08 00:40:06;;;;;;;;;;;;;;;7.02;100.00;96695.84;5034215;28;19945;-82
2023/04/08 00:42:32;;;;;;;;;;;;;;;6.93;100.00;96681.31;5034097;28;19945;-69
2023/04/08 00:44:58;;;;;;;;;;;;;;;6.81;100.00;96699.28;5034164;28;20044;-76
2023/04/08 00:47:24;;;;;;;;;;;;;;;6.76;100.00;96702.44;5034037;28;19939;-75
2023/04/08 00:49:50;;;;;;;;;;;;;;;6.73;100.00;96702.00;5034063;28;19938;-76
2023/04/08 00:52:16;;;;;;;;;;;;;;;6.71;100.00;96705.59;5034248;28;19944;-76
2023/04/08 00:54:42;;;;;;;;;;;;;;;6.73;100.00;96708.03;5033909;28;19963;-76
2023/04/08 00:57:08;;;;;;;;;;;;;;;6.77;100.00;96698.84;5016920;28;19966;-76
2023/04/08 00:59:35;;;;;;;;;;;;;;;6.79;100.00;96701.25;5033856;28;19961;-76
2023/04/08 01:02:06;;;;;;;;;;;;;;;6.79;100.00;96704.66;5033926;28;20426;-83
2023/04/08 01:04:47;;;;;;;;;;;;;;;6.77;100.00;96701.44;5016039;28;19958;-71
2023/04/08 01:07:13;;;;;;;;;;;;;;;6.79;100.00;96698.66;5033712;28;19948;-72
2023/04/08 01:09:43;;;;;;;;;;;;;;;6.79;100.00;96704.66;5033686;28;20334;-72
2023/04/08 01:12:11;;;;;;;;;;;;;;;6.80;100.00;96701.06;5033954;28;19991;-72
2023/04/08 01:14:39;;;;;;;;;;;;;;;6.78;100.00;96699.63;5033684;28;19981;-71
2023/04/08 01:17:05;;;;;;;;;;;;;;;6.73;100.00;96702.81;5032668;28;20045;-71
2023/04/08 01:19:33;;;;;;;;;;;;;;;6.70;100.00;96698.00;5015903;28;19947;-69
2023/04/08 01:22:02;;;;;;;;;;;;;;;6.67;100.00;96699.13;5033697;28;19940;-74
2023/04/08 01:24:30;;;;;;;;;;;;;;;6.67;100.00;96704.34;5034077;28;19947;-73
2023/04/08 01:26:56;;;;;;;;;;;;;;;6.66;100.00;96705.34;5033544;28;19953;-74
2023/04/08 01:29:24;;;;;;;;;;;;;;;6.69;100.00;96707.59;5033464;28;19950;-73
2023/04/08 01:31:50;;;;;;;;;;;;;;;6.71;100.00;96702.19;5033496;28;19941;-74
2023/04/08 01:34:17;;;;;;;;;;;;;;;6.73;100.00;96697.59;5033338;28;19968;-74
2023/04/08 01:36:45;;;;;;;;;;;;;;;6.74;100.00;96695.78;5015664;28;19969;-73
2023/04/08 01:39:12;;;;;;;;;;;;;;;6.73;100.00;96696.78;5034074;28;19949;-71
2023/04/08 01:41:38;;;;;;;;;;;;;;;6.73;100.00;96708.03;5033958;28;20416;-73
2023/04/08 01:44:04;;;;;;;;;;;;;;;6.69;100.00;96697.16;5033460;28;20295;-74
2023/04/08 01:46:31;;;;;;;;;;;;;;;6.67;100.00;96700.94;5033347;28;19947;-74
2023/04/08 01:48:57;;;;;;;;;;;;;;;6.65;100.00;96697.72;5033611;28;19944;-73
2023/04/08 01:51:23;;;;;;;;;;;;;;;6.64;100.00;96691.72;5033527;28;19944;-73
2023/04/08 01:53:49;;;;;;;;;;;;;;;6.63;100.00;96692.69;5033182;28;20315;-73
2023/04/08 01:56:15;;;;;;;;;;;;;;;6.61;100.00;96686.06;5033833;28;19946;-74
2023/04/08 01:58:45;;;;;;;;;;;;;;;6.60;100.00;96693.06;5033464;28;19941;-74
2023/04/08 02:01:12;;;;;;;;;;;;;;;6.62;100.00;96679.88;5016333;28;19956;-77
2023/04/08 02:03:41;;;;;;;;;;;;;;;6.60;100.00;96687.06;5033225;28;20319;-77
2023/04/08 02:06:07;;;;;;;;;;;;;;;6.57;100.00;96688.22;5033487;28;19951;-76
2023/04/08 02:08:34;;;;;;;;;;;;;;;6.55;100.00;96695.44;5033216;28;19940;-76
2023/04/08 02:11:01;;;;;;;;;;;;;;;6.54;100.00;96695.63;5033180;28;19941;-76
2023/04/08 02:13:28;;;;;;;;;;;;;;;6.50;100.00;96692.56;5033026;28;19974;-76
2023/04/08 02:16:02;;;;;;;;;;;;;;;6.46;100.00;96689.53;5033117;28;19969;-75
2023/04/08 02:18:30;;;;;;;;;;;;;;;6.45;100.00;96692.34;5033712;28;19939;-69
2023/04/08 02:21:02;;;;;;;;;;;;;;;6.45;100.00;96694.94;5033965;28;19968;-69
2023/04/08 02:23:28;;;;;;;;;;;;;;;6.47;100.00;96687.75;5033056;28;19937;-69
2023/04/08 02:25:55;;;;;;;;;;;;;;;6.47;100.00;96688.53;5015572;28;19945;-70
2023/04/08 02:28:22;;;;;;;;;;;;;;;6.50;100.00;96695.19;5035232;28;19942;-69
2023/04/08 02:30:49;;;;;;;;;;;;;;;6.49;100.00;96691.78;5036740;28;19947;-68
2023/04/08 02:33:16;;;;;;;;;;;;;;;6.49;100.00;96698.78;5036524;28;20391;-71
2023/04/08 02:35:43;;;;;;;;;;;;;;;6.48;100.00;96697.16;5036305;28;19965;-70
2023/04/08 02:38:10;;;;;;;;;;;;;;;6.48;100.00;96702.38;5019651;28;19946;-69
2023/04/08 02:40:36;;;;;;;;;;;;;;;6.48;100.00;96694.56;5036420;28;19943;-71
2023/04/08 02:43:02;;;;;;;;;;;;;;;6.48;100.00;96703.16;5036354;28;19940;-70
2023/04/08 02:45:34;;;;;;;;;;;;;;;6.45;100.00;96697.53;5036301;28;20036;-70
2023/04/08 02:48:00;;;;;;;;;;;;;;;6.43;100.00;96692.50;5036219;28;19949;-70
2023/04/08 02:50:26;;;;;;;;;;;;;;;6.42;100.00;96692.69;5037215;28;19962;-70
2023/04/08 02:52:52;;;;;;;;;;;;;;;6.35;100.00;96687.41;5036111;28;20397;-84
2023/04/08 02:55:18;;;;;;;;;;;;;;;6.32;100.00;96700.00;5036005;28;19960;-71
2023/04/08 02:57:46;;;;;;;;;;;;;;;6.30;100.00;96689.78;5035986;28;19946;-71
2023/04/08 03:00:12;;;;;;;;;;;;;;;6.30;100.00;96690.59;5035928;28;19942;-72
2023/04/08 03:02:38;;;;;;;;;;;;;;;6.32;100.00;96689.56;5036105;28;19940;-72
2023/04/08 03:05:04;;;;;;;;;;;;;;;6.33;100.00;96696.41;5035890;28;20409;-72
2023/04/08 03:07:30;;;;;;;;;;;;;;;6.33;100.00;96693.81;5036049;28;19937;-71
2023/04/08 03:09:56;;;;;;;;;;;;;;;6.34;100.00;96698.84;5035848;28;19952;-83
2023/04/08 03:12:22;;;;;;;;;;;;;;;6.32;100.00;96695.63;5035785;28;19944;-69
2023/04/08 03:14:48;;;;;;;;;;;;;;;6.29;100.00;96706.38;5035739;28;20333;-68
2023/04/08 03:17:14;;;;;;;;;;;;;;;6.26;100.00;96707.56;5036012;28;19965;-69
2023/04/08 03:19:40;;;;;;;;;;;;;;;6.27;100.00;96703.16;5018625;28;19940;-69
2023/04/08 03:22:08;;;;;;;;;;;;;;;6.26;100.00;96694.53;5035605;28;19959;-69
2023/04/08 03:24:34;;;;;;;;;;;;;;;6.28;100.00;96696.97;5036103;28;20423;-70
2023/04/08 03:27:00;;;;;;;;;;;;;;;6.30;100.00;96687.97;5035759;28;20304;-69
2023/04/08 03:29:26;;;;;;;;;;;;;;;6.31;100.00;96699.19;5036115;28;19946;-69
2023/04/08 03:31:52;;;;;;;;;;;;;;;6.33;100.00;96693.81;5035444;28;19948;-70
2023/04/08 03:34:18;;;;;;;;;;;;;;;6.34;100.00;96695.41;5035849;28;20009;-70
2023/04/08 03:36:44;;;;;;;;;;;;;;;6.33;100.00;96701.63;5018094;28;19961;-70
2023/04/08 03:39:10;;;;;;;;;;;;;;;6.35;100.00;96699.66;5035460;28;20009;-69
2023/04/08 03:41:35;;;;;;;;;;;;;;;6.33;100.00;96697.22;5035016;28;19948;-70
2023/04/08 03:44:01;;;;;;;;;;;;;;;6.34;100.00;96705.81;5035243;28;20007;-70
2023/04/08 03:46:27;;;;;;;;;;;;;;;6.32;100.00;96707.81;5035144;28;19944;-73
2023/04/08 03:48:53;;;;;;;;;;;;;;;6.33;100.00;96704.22;5035643;28;19947;-75
2023/04/08 03:51:19;;;;;;;;;;;;;;;6.34;100.00;96705.81;5018214;28;19941;-72
2023/04/08 03:53:44;;;;;;;;;;;;;;;6.35;100.00;96705.66;5034899;28;19945;-71
2023/04/08 03:56:11;;;;;;;;;;;;;;;6.37;100.00;96708.88;5035372;28;20425;-71
2023/04/08 03:58:37;;;;;;;;;;;;;;;6.40;100.00;96702.50;5034790;28;19947;-71
2023/04/08 04:01:02;;;;;;;;;;;;;;;6.41;100.00;96704.13;5034814;28;19949;-71
2023/04/08 04:03:28;;;;;;;;;;;;;;;6.40;100.00;96692.06;5017147;28;19949;-71
2023/04/08 04:05:54;;;;;;;;;;;;;;;6.40;100.00;96702.50;5034830;28;19940;-71
2023/04/08 04:08:20;;;;;;;;;;;;;;;6.40;100.00;96707.69;5035324;28;19944;-70
2023/04/08 04:10:46;;;;;;;;;;;;;;;6.41;100.00;96704.13;5034939;28;19940;-69
2023/04/08 04:13:12;;;;;;;;;;;;;;;6.39;100.00;96700.88;5034566;28;19969;-69
2023/04/08 04:15:38;;;;;;;;;;;;;;;6.41;100.00;96701.50;5034439;28;20056;-69
2023/04/08 04:18:04;;;;;;;;;;;;;;;6.43;100.00;96707.34;5035409;28;19951;-69
2023/04/08 04:20:31;;;;;;;;;;;;;;;6.41;100.00;96717.13;5034454;28;20293;-69
2023/04/08 04:22:57;;;;;;;;;;;;;;;6.39;100.00;96717.31;5034433;28;19945;-84
2023/04/08 04:25:23;;;;;;;;;;;;;;;6.40;100.00;96712.91;5034481;28;20418;-83
2023/04/08 04:27:48;;;;;;;;;;;;;;;6.38;100.00;96713.09;5034815;28;19992;-73
2023/04/08 04:30:14;;;;;;;;;;;;;;;6.39;100.00;96721.72;5034235;28;20342;-74
2023/04/08 04:32:41;;;;;;;;;;;;;;;6.41;100.00;96722.34;5034209;28;19955;-74
2023/04/08 04:35:11;;;;;;;;;;;;;;;6.41;100.00;96719.75;5034651;28;19962;-74
2023/04/08 04:37:37;;;;;;;;;;;;;;;6.38;100.00;96728.72;5034357;28;20004;-73
2023/04/08 04:40:04;;;;;;;;;;;;;;;6.39;100.00;96732.16;5034638;28;19946;-74
2023/04/08 04:42:30;;;;;;;;;;;;;;;6.38;100.00;96733.13;5034025;28;19943;-74
2023/04/08 04:44:56;;;;;;;;;;;;;;;6.36;100.00;96729.91;5016584;28;19948;-69
2023/04/08 04:47:22;;;;;;;;;;;;;;;6.34;100.00;96735.31;5034530;28;19974;-69
2023/04/08 04:49:48;;;;;;;;;;;;;;;6.34;100.00;96737.09;5034796;28;19944;-69
2023/04/08 04:52:13;;;;;;;;;;;;;;;6.36;100.00;96743.72;5033832;28;19989;-69
2023/04/08 04:54:40;;;;;;;;;;;;;;;6.37;100.00;96739.34;5033856;28;20000;-69
2023/04/08 04:57:06;;;;;;;;;;;;;;;6.40;100.00;96739.75;5016575;28;19949;-69
2023/04/08 04:59:32;;;;;;;;;;;;;;;6.43;100.00;96749.03;5033899;28;19936;-73
2023/04/08 05:01:57;;;;;;;;;;;;;;;6.42;100.00;96742.19;5034470;28;19948;-74
2023/04/08 05:04:24;;;;;;;;;;;;;;;6.40;100.00;96744.97;5016428;28;19948;-69
2023/04/08 05:06:50;;;;;;;;;;;;;;;6.42;100.00;96745.59;5016366;28;20402;-70
2023/04/08 05:09:15;;;;;;;;;;;;;;;6.44;100.00;96748.81;5033817;28;19942;-69
2023/04/08 05:11:41;;;;;;;;;;;;;;;6.45;100.00;96753.06;5033746;28;19940;-69
2023/04/08 05:14:07;;;;;;;;;;;;;;;6.46;100.00;96754.66;5033986;28;19994;-69
2023/04/08 05:16:33;;;;;;;;;;;;;;;6.47;100.00;96750.28;5033568;28;19990;-69
2023/04/08 05:18:59;;;;;;;;;;;;;;;6.48;100.00;96750.06;5033968;28;19945;-75
2023/04/08 05:21:26;;;;;;;;;;;;;;;6.48;100.00;96749.28;5033686;28;19950;-84
2023/04/08 05:23:53;;;;;;;;;;;;;;;6.52;100.00;96752.31;5033605;28;19944;-85
2023/04/08 05:26:20;;;;;;;;;;;;;;;6.53;100.00;96757.34;5034443;28;19950;-85
2023/04/08 05:28:47;;;;;;;;;;;;;;;6.55;100.00;96757.97;5033592;28;20450;-84
2023/04/08 05:31:16;;;;;;;;;;;;;;;6.57;100.00;96758.56;5033840;28;19942;-84
2023/04/08 05:33:41;;;;;;;;;;;;;;;6.58;100.00;96754.19;5034078;28;20315;-85
2023/04/08 05:36:07;;;;;;;;;;;;;;;6.61;100.00;96756.41;5033391;28;19976;-85
2023/04/08 05:38:33;;;;;;;;;;;;;;;6.61;100.00;96766.84;5033466;28;19969;-85
2023/04/08 05:40:59;;;;;;;;;;;;;;;6.64;100.00;96756.06;5033461;28;19950;-74
2023/04/08 05:43:25;;;;;;;;;;;;;;;6.66;100.00;96770.50;5033348;28;19959;-73
2023/04/08 05:45:50;;;;;;;;;;;;;;;6.68;100.00;96765.94;5033402;28;19947;-73
2023/04/08 05:48:16;;;;;;;;;;;;;;;6.71;100.00;96762.94;5033550;28;19946;-74
2023/04/08 05:50:42;;;;;;;;;;;;;;;6.71;100.00;96768.16;5033282;28;20384;-73
2023/04/08 05:53:08;;;;;;;;;;;;;;;6.75;100.00;96773.00;5033239;28;19951;-74
2023/04/08 05:55:34;;;;;;;;;;;;;;;6.73;100.00;96772.38;5034039;28;20413;-85
2023/04/08 05:58:00;;;;;;;;;;;;;;;6.66;100.00;96775.72;5033337;28;20001;-75
2023/04/08 06:00:26;;;;;;;;;;;;;;;6.61;100.00;96772.84;5033207;28;19949;-73
2023/04/08 06:02:52;;;;;;;;;;;;;;;6.60;100.00;96781.66;5034556;28;19949;-73
2023/04/08 06:05:18;;;;;;;;;;;;;;;6.61;100.00;96775.44;5037013;28;19948;-74
2023/04/08 06:07:44;;;;;;;;;;;;;;;6.62;100.00;96784.09;5037464;28;19943;-74
2023/04/08 06:10:10;;;;;;;;;;;;;;;6.65;100.00;96779.31;5036933;28;19942;-74
2023/04/08 06:12:37;;;;;;;;;;;;;;;6.73;100.00;96788.81;5036652;28;19946;-74
2023/04/08 06:15:03;;;;;;;;;;;;;;;6.79;100.00;96784.69;5036883;28;20026;-74
2023/04/08 06:17:29;;;;;;;;;;;;;;;6.83;100.00;96784.13;5019186;28;19953;-69
2023/04/08 06:19:55;;;;;;;;;;;;;;;6.89;100.00;96783.38;5035594;28;20313;-70
2023/04/08 06:22:21;;;;;;;;;;;;;;;6.93;100.00;96785.59;5036742;28;19940;-70
2023/04/08 06:24:47;;;;;;;;;;;;;;;6.96;100.00;96788.66;5019043;28;19948;-70
2023/04/08 06:27:13;;;;;;;;;;;;;;;6.99;100.00;96793.50;5037283;28;19963;-70
2023/04/08 06:29:40;;;;;;;;;;;;;;;7.00;100.00;96789.09;5036585;28;20403;-70
2023/04/08 06:32:05;;;;;;;;;;;;;;;7.01;100.00;96791.50;5036851;28;20417;-72
2023/04/08 06:34:31;;;;;;;;;;;;;;;7.03;100.00;96802.53;5037250;28;19946;-74
2023/04/08 06:36:57;;;;;;;;;;;;;;;7.04;100.00;96790.34;5018810;28;19983;-74
2023/04/08 06:39:23;;;;;;;;;;;;;;;7.03;100.00;96794.72;5036296;28;19942;-75
2023/04/08 06:41:49;;;;;;;;;;;;;;;7.04;100.00;96791.13;5037106;28;19944;-74
2023/04/08 06:44:15;;;;;;;;;;;;;;;7.03;100.00;96786.09;5036259;28;19942;-74
2023/04/08 06:46:41;;;;;;;;;;;;;;;7.04;100.00;96798.16;5036651;28;19985;-73
2023/04/08 06:49:07;;;;;;;;;;;;;;;7.07;100.00;96798.56;5036166;28;20464;-74
2023/04/08 06:51:33;;;;;;;;;;;;;;;7.11;100.00;96799.00;5036194;28;20016;-75
2023/04/08 06:53:58;;;;;;;;;;;;;;;7.11;100.00;96804.22;5036695;28;19946;-77
2023/04/08 06:56:25;;;;;;;;;;;;;;;7.11;100.00;96799.00;5036009;28;20012;-76
2023/04/08 06:58:51;;;;;;;;;;;;;;;7.11;100.00;96810.25;5019242;28;19951;-75
2023/04/08 07:01:17;;;;;;;;;;;;;;;7.15;100.00;96807.28;5036027;28;19933;-76
2023/04/08 07:03:43;;;;;;;;;;;;;;;7.18;100.00;96805.13;5036499;28;19969;-76
2023/04/08 07:06:08;;;;;;;;;;;;;;;7.20;100.00;96813.56;5036207;28;19953;-76
2023/04/08 07:08:35;;;;;;;;;;;;;;;7.19;100.00;96805.91;5036012;28;19937;-76
2023/04/08 07:11:01;;;;;;;;;;;;;;;7.18;100.00;96809.50;5035874;28;19939;-69
2023/04/08 07:13:28;;;;;;;;;;;;;;;7.18;100.00;96815.53;5035472;28;19972;-74
2023/04/08 07:15:54;;;;;;;;;;;;;;;7.18;100.00;96814.72;5018028;28;19967;-74
2023/04/08 07:18:20;;;;;;;;;;;;;;;7.14;100.00;96814.31;5036495;28;20033;-73
2023/04/08 07:20:50;;;;;;;;;;;;;;;7.11;100.00;96818.06;5035560;28;19947;-74
2023/04/08 07:23:16;;;;;;;;;;;;;;;7.13;100.00;96817.88;5035508;28;19951;-74
2023/04/08 07:25:41;;;;;;;;;;;;;;;7.19;100.00;96816.34;5035544;28;19995;-74
2023/04/08 07:28:07;;;;;;;;;;;;;;;7.28;100.00;96823.84;5036298;28;19945;-76
2023/04/08 07:30:33;;;;;;;;;;;;;;;7.45;100.00;96823.56;5036243;28;19946;-74
2023/04/08 07:32:59;;;;;;;;;;;;;;;7.59;100.00;96821.91;5035349;28;19975;-74
2023/04/08 07:35:25;;;;;;;;;;;;;;;7.69;100.00;96819.75;5035185;28;19992;-74
2023/04/08 07:37:51;;;;;;;;;;;;;;;7.83;99.53;96821.47;5035257;28;19966;-74
2023/04/08 07:40:17;;;;;;;;;;;;;;;7.96;98.99;96819.91;5035229;28;19938;-74
2023/04/08 07:42:43;;;;;;;;;;;;;;;8.00;98.69;96821.16;5035923;28;20404;-74
2023/04/08 07:45:09;;;;;;;;;;;;;;;8.01;99.18;96826.19;5035142;28;19943;-75
2023/04/08 07:47:35;;;;;;;;;;;;;;;8.00;98.15;96821.97;5035155;28;20401;-71
2023/04/08 07:50:02;;;;;;;;;;;;;;;7.94;97.81;96820.13;5035003;28;19941;-85
2023/04/08 07:52:29;;;;;;;;;;;;;;;7.91;98.12;96823.09;5035089;28;19940;-84
2023/04/08 07:54:55;;;;;;;;;;;;;;;7.86;97.13;96826.28;5034957;28;19940;-84
2023/04/08 07:57:21;;;;;;;;;;;;;;;7.84;98.78;96838.75;5035253;28;20457;-84
2023/04/08 07:59:46;;;;;;;;;;;;;;;7.87;98.31;96834.94;5034986;28;19979;-84
2023/04/08 08:02:12;;;;;;;;;;;;;;;7.88;98.39;96833.94;5034900;28;19947;-84
2023/04/08 08:04:38;;;;;;;;;;;;;;;7.89;97.85;96831.13;5034875;28;19950;-85
2023/04/08 08:07:04;;;;;;;;;;;;;;;7.91;98.21;96841.38;5035638;28;19947;-72
2023/04/08 08:09:30;;;;;;;;;;;;;;;7.95;98.47;96842.63;5034629;28;19954;-71
2023/04/08 08:11:56;;;;;;;;;;;;;;;7.98;97.92;96838.81;5034604;28;19940;-71
2023/04/08 08:14:22;;;;;;;;;;;;;;;8.01;97.56;96839.25;5034420;28;19975;-71
2023/04/08 08:16:48;;;;;;;;;;;;;;;7.99;97.38;96843.84;5034635;28;20017;-71
2023/04/08 08:19:14;;;;;;;;;;;;;;;7.90;96.96;96847.63;5035334;28;19951;-71
2023/04/08 08:21:40;;;;;;;;;;;;;;;7.84;97.60;96843.97;5034650;28;19943;-71
2023/04/08 08:24:06;;;;;;;;;;;;;;;7.79;96.76;96838.50;5034489;28;20001;-70
2023/04/08 08:26:38;;;;;;;;;;;;;;;7.78;97.25;96852.53;5034446;28;19945;-85
2023/04/08 08:29:04;;;;;;;;;;;;;;;7.84;97.75;96846.56;5035128;28;20310;-84
2023/04/08 08:31:30;;;;;;;;;;;;;;;7.92;97.60;96854.25;5034328;28;19945;-84
2023/04/08 08:33:55;;;;;;;;;;;;;;;7.93;96.19;96848.03;5035173;28;20356;-85
2023/04/08 08:36:21;;;;;;;;;;;;;;;7.91;96.65;96855.25;5034285;28;20025;-85
2023/04/08 08:38:47;;;;;;;;;;;;;;;7.92;96.44;96858.69;5034196;28;19943;-84
2023/04/08 08:41:14;;;;;;;;;;;;;;;7.92;96.54;96864.72;5034237;28;19945;-74
2023/04/08 08:43:40;;;;;;;;;;;;;;;7.97;96.96;96864.13;5034118;28;20431;-75
2023/04/08 08:46:09;;;;;;;;;;;;;;;8.10;97.02;96864.19;5034929;28;19940;-73
2023/04/08 08:48:37;;;;;;;;;;;;;;;8.22;96.81;96858.47;5034112;28;19944;-74
2023/04/08 08:51:07;;;;;;;;;;;;;;;8.31;95.70;96847.63;5033954;28;20383;-74
2023/04/08 08:53:33;;;;;;;;;;;;;;;8.43;94.87;96844.53;5033866;28;19944;-74
2023/04/08 08:55:59;;;;;;;;;;;;;;;8.53;94.75;96848.38;5034761;28;20015;-74
2023/04/08 08:58:26;;;;;;;;;;;;;;;8.64;93.31;96844.41;5033842;28;19943;-75
2023/04/08 09:00:52;;;;;;;;;;;;;;;8.70;92.42;96835.78;5033966;28;19945;-75
2023/04/08 09:03:19;;;;;;;;;;;;;;;8.82;92.17;96841.28;5033868;28;20005;-76
2023/04/08 09:05:51;;;;;;;;;;;;;;;8.94;91.54;96838.88;5033802;28;19937;-75
2023/04/08 09:08:23;;;;;;;;;;;;;;;9.06;92.03;96844.34;5034034;28;20422;-75
2023/04/08 09:10:49;;;;;;;;;;;;;;;9.14;91.45;96839.72;5033801;28;19949;-75
2023/04/08 09:13:15;;;;;;;;;;;;;;;9.19;90.57;96844.34;5034387;28;19993;-75
2023/04/08 09:16:00;;;;;;;;;;;;;;;9.23;89.66;96840.34;5033583;28;19975;-75
2023/04/08 09:18:26;;;;;;;;;;;;;;;9.29;88.84;96834.31;5033660;28;19952;-76
2023/04/08 09:20:52;;;;;;;;;;;;;;;9.41;89.88;96838.94;5033676;28;20308;-70
2023/04/08 09:23:18;;;;;;;;;;;;;;;9.49;88.61;96836.94;5016879;28;19947;-71
2023/04/08 09:25:44;;;;;;;;;;;;;;;9.55;86.51;96817.81;5033919;28;19948;-70
2023/04/08 09:28:20;;;;;;;;;;;;;;;9.59;85.87;96822.63;5033659;28;19961;-70
2023/04/08 09:30:46;;;;;;;;;;;;;;;9.64;84.87;96801.88;5016211;28;20403;-70
2023/04/08 09:33:12;;;;;;;;;;;;;;;9.72;83.22;96799.88;5033608;28;19942;-70
2023/04/08 09:35:38;;;;;;;;;;;;;;;9.89;84.57;96807.28;5033897;28;19965;-75
2023/04/08 09:38:04;;;;;;;;;;;;;;;10.04;85.81;96820.97;5017993;28;19944;-71
2023/04/08 09:40:36;;;;;;;;;;;;;;;10.15;81.91;96783.66;5037525;28;19935;-75
2023/04/08 09:43:08;;;;;;;;;;;;;;;10.28;83.23;96806.38;5038061;28;19953;-76
2023/04/08 09:45:35;;;;;;;;;;;;;;;10.47;83.05;96802.13;5037984;28;19943;-75
2023/04/08 09:48:07;;;;;;;;;;;;;;;10.65;83.22;96795.41;5037505;28;19950;-76
2023/04/08 09:50:35;;;;;;;;;;;;;;;10.72;75.90;96739.25;5037840;28;19943;-75
2023/04/08 09:53:08;;;;;;;;;;;;;;;10.73;75.25;96743.50;5037230;28;20436;-75
2023/04/08 09:55:36;;;;;;;;;;;;;;;10.82;78.66;96769.47;5037696;28;19944;-74
2023/04/08 09:58:05;;;;;;;;;;;;;;;10.90;76.48;96745.63;5019407;28;19948;-71
2023/04/08 10:00:37;;;;;;;;;;;;;;;10.88;69.72;96674.97;5037151;28;19955;-70
2023/04/08 10:03:06;;;;;;;;;;;;;;;10.83;74.96;96735.13;5037136;28;20344;-71
2023/04/08 10:05:35;;;;;;;;;;;;;;;10.82;76.87;96766.84;5037573;28;19943;-70
2023/04/08 10:08:01;;;;;;;;;;;;;;;10.85;74.36;96746.22;5037261;28;19941;-70
2023/04/08 10:10:27;;;;;;;;;;;;;;;10.82;71.94;96724.88;5019278;28;19982;-71
2023/04/08 10:12:53;;;;;;;;;;;;;;;10.85;74.24;96756.72;5036734;28;20020;-71
2023/04/08 10:15:29;;;;;;;;;;;;;;;10.96;73.60;96727.19;5037043;28;20415;-76
2023/04/08 10:18:17;;;;;;;;;;;;;;;11.03;71.54;96721.91;5019116;28;19946;-70
2023/04/08 10:20:44;;;;;;;;;;;;;;;11.16;75.75;96761.16;5019801;28;19962;-70
2023/04/08 10:23:12;;;;;;;;;;;;;;;11.20;73.40;96732.66;5036767;28;20458;-71
2023/04/08 10:25:45;;;;;;;;;;;;;;;11.21;74.95;96750.00;5036597;28;20281;-71
2023/04/08 10:28:11;;;;;;;;;;;;;;;11.26;74.80;96749.38;5036883;28;19950;-70
2023/04/08 10:30:36;;;;;;;;;;;;;;;11.29;73.28;96730.56;5036815;28;19936;-71
2023/04/08 10:33:08;;;;;;;;;;;;;;;11.34;72.20;96728.91;5036568;28;19946;-75
2023/04/08 10:35:35;;;;;;;;;;;;;;;11.47;72.26;96721.94;5019312;28;20404;-77
2023/04/08 10:38:01;;;;;;;;;;;;;;;11.58;71.99;96711.50;5036450;28;20289;-76
2023/04/08 10:40:27;;;;;;;;;;;;;;;11.63;70.19;96708.22;5036380;28;19946;-76
2023/04/08 10:42:56;;;;;;;;;;;;;;;11.67;70.67;96721.72;5037290;28;19991;-75
2023/04/08 10:45:22;;;;;;;;;;;;;;;11.73;66.62;96690.13;5036402;28;19943;-75
2023/04/08 10:47:48;;;;;;;;;;;;;;;11.68;67.11;96694.44;5037113;28;19948;-75
2023/04/08 10:50:15;;;;;;;;;;;;;;;11.67;70.43;96719.09;5036535;28;19998;-75
2023/04/08 10:52:47;;;;;;;;;;;;;;;11.73;70.84;96747.13;5036193;28;19945;-72
2023/04/08 10:55:13;;;;;;;;;;;;;;;11.71;69.87;96728.97;5036424;28;19955;-71
2023/04/08 10:57:40;;;;;;;;;;;;;;;11.67;67.80;96717.28;5036307;28;19966;-72
2023/04/08 11:00:09;;;;;;;;;;;;;;;11.63;68.95;96737.13;5036189;28;20046;-71
2023/04/08 11:02:37;;;;;;;;;;;;;;;11.52;68.23;96722.09;5036082;28;19956;-72
2023/04/08 11:05:03;;;;;;;;;;;;;;;11.48;68.32;96721.69;5036012;28;19948;-71
2023/04/08 11:07:29;;;;;;;;;;;;;;;11.40;67.22;96732.47;5036219;28;19943;-72
2023/04/08 11:09:55;;;;;;;;;;;;;;;11.35;66.20;96716.59;5036750;28;19979;-75
2023/04/08 11:12:21;;;;;;;;;;;;;;;11.35;67.26;96735.75;5035800;28;20301;-72
2023/04/08 11:14:48;;;;;;;;;;;;;;;11.41;69.06;96741.97;5035540;28;19981;-72
2023/04/08 11:17:15;;;;;;;;;;;;;;;11.42;67.35;96721.78;5035655;28;19965;-72
2023/04/08 11:19:41;;;;;;;;;;;;;;;11.34;67.47;96725.50;5035822;28;20307;-72
2023/04/08 11:22:08;;;;;;;;;;;;;;;11.25;66.49;96729.38;5035876;28;19947;-72
2023/04/08 11:24:35;;;;;;;;;;;;;;;11.16;66.82;96732.28;5035511;28;19947;-71
2023/04/08 11:27:03;;;;;;;;;;;;;;;11.07;68.40;96751.94;5035640;28;20395;-71
2023/04/08 11:29:29;;;;;;;;;;;;;;;11.02;68.94;96759.63;5036327;28;19947;-76
2023/04/08 11:31:55;;;;;;;;;;;;;;;10.99;68.95;96772.41;5018528;28;19949;-74
2023/04/08 11:34:22;;;;;;;;;;;;;;;10.92;67.26;96736.50;5035473;28;19948;-75
2023/04/08 11:36:51;;;;;;;;;;;;;;;10.83;64.85;96732.50;5035243;28;20294;-75
2023/04/08 11:39:17;;;;;;;;;;;;;;;10.69;63.67;96720.53;5035592;28;19941;-75
2023/04/08 11:41:43;;;;;;;;;;;;;;;10.62;67.59;96745.97;5035407;28;19974;-76
2023/04/08 11:44:09;;;;;;;;;;;;;;;10.58;65.54;96745.56;5035839;28;19956;-75
2023/04/08 11:46:35;;;;;;;;;;;;;;;10.50;64.29;96733.53;5035235;28;20314;-87
2023/04/08 11:49:02;;;;;;;;;;;;;;;10.43;65.13;96752.94;5035061;28;19959;-75
2023/04/08 11:51:28;;;;;;;;;;;;;;;10.38;67.68;96776.34;5034972;28;19945;-76
2023/04/08 11:53:54;;;;;;;;;;;;;;;10.38;68.06;96776.34;5035030;28;20034;-76
2023/04/08 11:56:22;;;;;;;;;;;;;;;10.31;68.05;96782.44;5035683;28;20062;-76
2023/04/08 11:58:48;;;;;;;;;;;;;;;10.26;66.73;96766.47;5034880;28;20402;-76
2023/04/08 12:01:14;;;;;;;;;;;;;;;10.22;66.54;96774.97;5034012;28;19997;-76
2023/04/08 12:03:53;;;;;;;;;;;;;;;10.21;68.11;96797.75;5034679;28;19951;-76
2023/04/08 12:06:19;;;;;;;;;;;;;;;10.20;66.06;96796.13;5034852;28;19957;-76
2023/04/08 12:08:45;;;;;;;;;;;;;;;10.18;67.32;96815.69;5035475;28;20430;-77
2023/04/08 12:11:11;;;;;;;;;;;;;;;10.12;66.43;96812.06;5034779;28;19948;-75
2023/04/08 12:13:37;;;;;;;;;;;;;;;10.08;68.24;96831.84;5034542;28;19968;-77
2023/04/08 12:16:03;;;;;;;;;;;;;;;10.03;67.44;96826.41;5035621;28;19957;-76
2023/04/08 12:18:29;;;;;;;;;;;;;;;10.03;66.88;96829.03;5035096;28;19944;-77
2023/04/08 12:20:54;;;;;;;;;;;;;;;10.04;67.41;96822.81;5034582;28;19947;-77
2023/04/08 12:23:20;;;;;;;;;;;;;;;10.10;67.33;96830.66;5034622;28;19945;-71
2023/04/08 12:25:46;;;;;;;;;;;;;;;10.15;67.43;96824.78;5034484;28;19984;-71
2023/04/08 12:28:12;;;;;;;;;;;;;;;10.19;67.82;96830.44;5017176;28;19947;-71
2023/04/08 12:30:38;;;;;;;;;;;;;;;10.18;68.17;96831.44;5034937;28;19945;-71
2023/04/08 12:33:04;;;;;;;;;;;;;;;10.15;68.51;96846.56;5016688;28;19945;-71
2023/04/08 12:35:30;;;;;;;;;;;;;;;10.14;68.38;96831.03;5034867;28;19952;-71
2023/04/08 12:37:56;;;;;;;;;;;;;;;10.12;69.68;96836.50;5000095;28;20312;-71
2023/04/08 12:40:21;;;;;;;;;;;;;;;10.15;68.35;96832.66;5034265;28;19952;-73
2023/04/08 12:42:47;;;;;;;;;;;;;;;10.19;68.82;96833.84;5034773;28;19939;-70
2023/04/08 12:45:13;;;;;;;;;;;;;;;10.22;68.88;96828.19;5035059;28;20001;-70